createdAt,value
2023-01-25T00:00:16.274Z,29.98
2023-01-25T00:03:04.546Z,25.92
2023-01-25T00:05:59.199Z,28.25
2023-01-25T00:08:27.633Z,32.28
2023-01-25T00:10:58.258Z,32.00
2023-01-25T00:13:27.273Z,34.60
2023-01-25T00:16:02.299Z,33.28
2023-01-25T00:18:31.132Z,40.20
2023-01-25T00:20:59.824Z,30.50
2023-01-25T00:23:28.857Z,35.15
2023-01-25T00:26:00.421Z,32.35
2023-01-25T00:28:28.953Z,32.47
2023-01-25T00:31:01.615Z,28.55
2023-01-25T00:33:43.277Z,26.58
2023-01-25T00:36:34.816Z,28.60
2023-01-25T00:39:03.171Z,28.25
2023-01-25T00:41:31.919Z,27.95
2023-01-25T00:44:00.322Z,25.23
2023-01-25T00:46:29.118Z,27.98
2023-01-25T00:48:57.822Z,27.23
2023-01-25T00:51:26.736Z,26.83
2023-01-25T00:53:55.188Z,26.15
2023-01-25T00:56:24.104Z,22.40
2023-01-25T00:58:52.530Z,21.10
2023-01-25T01:01:21.715Z,22.42
2023-01-25T01:03:52.110Z,27.08
2023-01-25T01:06:20.758Z,27.95
2023-01-25T01:09:05.568Z,27.73
2023-01-25T01:11:34.307Z,23.88
2023-01-25T01:14:02.744Z,24.95
2023-01-25T01:16:33.513Z,27.20
2023-01-25T01:19:02.092Z,20.45
2023-01-25T01:21:34.534Z,20.52
2023-01-25T01:24:03.303Z,20.52
2023-01-25T01:26:32.180Z,19.13
2023-01-25T01:29:00.776Z,21.38
2023-01-25T01:31:29.753Z,22.77
2023-01-25T01:34:13.598Z,19.05
2023-01-25T01:36:42.880Z,27.70
2023-01-25T01:39:11.638Z,21.75
2023-01-25T01:41:40.732Z,25.98
2023-01-25T01:44:41.548Z,26.10
2023-01-25T01:47:17.819Z,28.00
2023-01-25T01:49:53.173Z,20.08
2023-01-25T01:52:29.573Z,22.17
2023-01-25T01:55:18.191Z,22.13
2023-01-25T01:57:50.220Z,23.67
2023-01-25T02:00:23.480Z,23.25
2023-01-25T02:02:53.209Z,20.63
2023-01-25T02:05:40.877Z,20.20
2023-01-25T02:08:12.417Z,20.13
2023-01-25T02:10:42.513Z,19.77
2023-01-25T02:13:12.184Z,21.55
2023-01-25T02:15:46.369Z,24.27
2023-01-25T02:18:16.045Z,18.33
2023-01-25T02:20:47.318Z,18.38
2023-01-25T02:23:41.300Z,20.10
2023-01-25T02:26:11.499Z,19.30
2023-01-25T02:28:51.746Z,15.70
2023-01-25T02:31:22.278Z,16.70
2023-01-25T02:33:51.041Z,18.48
2023-01-25T02:36:29.604Z,19.00
2023-01-25T02:39:13.498Z,19.77
2023-01-25T02:41:46.881Z,18.25
2023-01-25T02:44:25.604Z,13.10
2023-01-25T02:46:54.142Z,19.88
2023-01-25T02:49:22.825Z,19.75
2023-01-25T02:52:00.536Z,21.02
2023-01-25T02:54:29.537Z,16.00
2023-01-25T02:56:58.538Z,19.55
2023-01-25T02:59:31.272Z,17.30
2023-01-25T03:02:02.478Z,16.40
2023-01-25T03:04:32.767Z,14.70
2023-01-25T03:07:01.458Z,16.35
2023-01-25T03:09:30.215Z,19.50
2023-01-25T03:11:58.490Z,14.07
2023-01-25T03:14:27.333Z,20.10
2023-01-25T03:16:55.802Z,17.92
2023-01-25T03:19:27.296Z,15.20
2023-01-25T03:21:55.694Z,16.30
2023-01-25T03:24:25.383Z,15.82
2023-01-25T03:27:13.355Z,15.98
2023-01-25T03:30:00.192Z,16.80
2023-01-25T03:32:32.358Z,16.98
2023-01-25T03:35:06.882Z,17.08
2023-01-25T03:37:35.433Z,18.05
2023-01-25T03:40:05.991Z,11.52
2023-01-25T03:42:34.870Z,14.07
2023-01-25T03:45:05.763Z,15.02
2023-01-25T03:47:34.145Z,13.82
2023-01-25T03:50:02.761Z,14.27
2023-01-25T03:52:38.344Z,16.05
2023-01-25T03:55:11.319Z,14.25
2023-01-25T03:57:43.089Z,9.95
2023-01-25T04:00:15.312Z,15.38
2023-01-25T04:02:43.606Z,13.27
2023-01-25T04:05:16.231Z,14.27
2023-01-25T04:07:44.560Z,10.50
2023-01-25T04:10:13.307Z,11.98
2023-01-25T04:12:45.677Z,4.15
2023-01-25T04:15:14.702Z,15.25
2023-01-25T04:17:44.948Z,16.63
2023-01-25T04:20:20.397Z,17.00
2023-01-25T04:22:48.750Z,15.73
2023-01-25T04:25:20.045Z,13.88
2023-01-25T04:27:54.512Z,16.40
2023-01-25T04:30:23.172Z,14.32
2023-01-25T04:32:52.322Z,14.82
2023-01-25T04:35:31.709Z,15.15
2023-01-25T04:38:03.080Z,15.75
2023-01-25T04:40:57.930Z,16.35
2023-01-25T04:43:31.713Z,15.55
2023-01-25T04:46:08.609Z,13.55
2023-01-25T04:48:40.838Z,14.73
2023-01-25T04:51:13.419Z,16.70
2023-01-25T04:54:15.776Z,13.05
2023-01-25T04:56:46.681Z,14.45
2023-01-25T04:59:15.856Z,17.40
2023-01-25T05:02:32.548Z,12.15
2023-01-25T05:05:05.222Z,12.77
2023-01-25T05:07:41.555Z,14.90
2023-01-25T05:10:31.089Z,14.73
2023-01-25T05:13:58.134Z,14.45
2023-01-25T05:16:40.548Z,16.33
2023-01-25T05:19:12.345Z,14.07
2023-01-25T05:21:58.319Z,15.60
2023-01-25T05:24:34.756Z,16.23
2023-01-25T05:27:11.300Z,18.38
2023-01-25T05:30:16.141Z,19.85
2023-01-25T05:33:08.641Z,16.38
2023-01-25T05:35:36.990Z,15.98
2023-01-25T05:38:07.166Z,16.02
2023-01-25T05:40:35.556Z,14.38
2023-01-25T05:43:04.252Z,17.60
2023-01-25T05:45:54.024Z,19.08
2023-01-25T05:48:23.121Z,16.85
2023-01-25T05:50:51.721Z,17.13
2023-01-25T05:53:32.540Z,16.08
2023-01-25T05:56:05.956Z,15.88
2023-01-25T05:58:35.327Z,14.43
2023-01-25T06:01:06.410Z,16.58
2023-01-25T06:03:46.486Z,12.90
2023-01-25T06:06:15.421Z,15.57
2023-01-25T06:08:45.139Z,14.65
2023-01-25T06:11:31.842Z,14.88
2023-01-25T06:14:00.817Z,13.10
2023-01-25T06:16:29.339Z,15.68
2023-01-25T06:19:20.822Z,21.83
2023-01-25T06:22:18.472Z,12.80
2023-01-25T06:24:47.688Z,12.55
2023-01-25T06:27:16.019Z,14.00
2023-01-25T06:29:44.801Z,13.05
2023-01-25T06:32:13.281Z,10.57
2023-01-25T06:34:42.330Z,10.73
2023-01-25T06:37:17.722Z,11.73
2023-01-25T06:39:46.261Z,12.90
2023-01-25T06:42:14.569Z,12.45
2023-01-25T06:44:43.294Z,12.55
2023-01-25T06:47:12.647Z,12.27
2023-01-25T06:49:41.517Z,14.23
2023-01-25T06:52:09.877Z,11.07
2023-01-25T06:54:38.410Z,11.70
2023-01-25T06:57:16.036Z,11.68
2023-01-25T06:59:52.434Z,12.73
2023-01-25T07:02:20.848Z,11.73
2023-01-25T07:04:49.766Z,12.02
2023-01-25T07:07:18.561Z,12.07
2023-01-25T07:09:47.347Z,11.93
2023-01-25T07:12:15.792Z,12.82
2023-01-25T07:14:44.644Z,14.48
2023-01-25T07:17:16.414Z,13.15
2023-01-25T07:19:45.030Z,14.15
2023-01-25T07:22:13.301Z,11.25
2023-01-25T07:24:42.079Z,15.23
2023-01-25T07:27:13.934Z,12.82
2023-01-25T07:29:43.323Z,15.70
2023-01-25T07:32:14.797Z,14.18
2023-01-25T07:37:12.020Z,13.23
2023-01-25T07:39:47.758Z,14.75
2023-01-25T07:42:16.273Z,16.73
2023-01-25T07:44:53.279Z,14.05
2023-01-25T07:47:21.605Z,15.00
2023-01-25T07:50:08.578Z,13.73
2023-01-25T07:52:37.229Z,15.80
2023-01-25T07:55:06.274Z,17.63
2023-01-25T07:57:34.982Z,14.00
2023-01-25T08:00:04.420Z,14.98
2023-01-25T08:02:41.276Z,15.27
2023-01-25T08:05:11.214Z,13.75
2023-01-25T08:07:40.172Z,14.60
2023-01-25T08:10:09.189Z,16.98
2023-01-25T08:12:38.332Z,12.50
2023-01-25T08:15:07.743Z,14.30
2023-01-25T08:17:36.609Z,12.77
2023-01-25T08:20:06.292Z,13.82
2023-01-25T08:22:35.091Z,12.82
2023-01-25T08:25:04.582Z,14.70
2023-01-25T08:27:33.203Z,15.50
2023-01-25T08:30:02.272Z,13.80
2023-01-25T08:32:30.841Z,15.02
2023-01-25T08:34:59.129Z,15.48
2023-01-25T08:37:29.813Z,14.80
2023-01-25T08:39:59.975Z,14.77
2023-01-25T08:42:28.695Z,17.35
2023-01-25T08:44:57.116Z,16.17
2023-01-25T08:47:26.827Z,15.77
2023-01-25T08:49:55.471Z,21.83
2023-01-25T08:52:24.033Z,17.23
2023-01-25T08:54:52.450Z,16.75
2023-01-25T08:57:21.043Z,27.27
2023-01-25T08:59:49.305Z,14.95
2023-01-25T09:02:19.729Z,15.77
2023-01-25T09:04:48.127Z,15.52
2023-01-25T09:07:16.734Z,20.33
2023-01-25T09:09:45.008Z,17.48
2023-01-25T09:12:13.725Z,19.98
2023-01-25T09:14:42.190Z,19.95
2023-01-25T09:17:10.938Z,16.55
2023-01-25T09:19:39.336Z,18.15
2023-01-25T09:22:08.364Z,16.42
2023-01-25T09:24:37.411Z,16.00
2023-01-25T09:27:06.092Z,17.15
2023-01-25T09:29:34.601Z,17.17
2023-01-25T09:32:03.592Z,15.85
2023-01-25T09:34:38.643Z,18.20
2023-01-25T09:37:07.381Z,18.20
2023-01-25T09:39:35.724Z,17.42
2023-01-25T09:42:14.895Z,17.80
2023-01-25T09:45:08.021Z,19.58
2023-01-25T09:47:51.342Z,16.60
2023-01-25T09:50:25.617Z,14.68
2023-01-25T09:53:06.482Z,16.65
2023-01-25T09:55:36.182Z,15.35
2023-01-25T09:58:05.597Z,17.50
2023-01-25T10:00:38.668Z,19.35
2023-01-25T10:03:53.525Z,24.40
2023-01-25T10:06:36.448Z,11.73
2023-01-25T10:09:38.641Z,17.70
2023-01-25T10:12:18.829Z,29.02
2023-01-25T10:14:48.973Z,35.70
2023-01-25T10:17:25.950Z,51.42
2023-01-25T10:20:24.327Z,25.83
2023-01-25T10:23:39.563Z,25.85
2023-01-25T10:26:38.986Z,17.88
2023-01-25T10:29:19.701Z,17.83
2023-01-25T10:31:56.698Z,32.05
2023-01-25T10:34:54.535Z,28.15
2023-01-25T10:37:30.973Z,16.15
2023-01-25T10:40:17.937Z,18.05
2023-01-25T10:43:02.511Z,17.17
2023-01-25T10:45:30.804Z,12.95
2023-01-25T10:48:03.709Z,15.65
2023-01-25T10:50:47.150Z,16.77
2023-01-25T10:53:44.507Z,9.02
2023-01-25T10:56:27.473Z,18.20
2023-01-25T10:59:17.549Z,16.92
2023-01-25T11:01:46.190Z,11.75
2023-01-25T11:04:32.801Z,22.15
2023-01-25T11:07:03.761Z,21.80
2023-01-25T11:09:38.070Z,18.03
2023-01-25T11:12:19.660Z,11.05
2023-01-25T11:14:50.197Z,21.00
2023-01-25T11:17:30.445Z,22.42
2023-01-25T11:20:25.551Z,20.38
2023-01-25T11:22:57.307Z,25.50
2023-01-25T11:28:25.518Z,26.20
2023-01-25T11:30:54.346Z,26.10
2023-01-25T11:33:23.096Z,22.67
2023-01-25T11:36:14.257Z,20.23
2023-01-25T11:38:59.010Z,19.30
2023-01-25T11:41:39.455Z,23.77
2023-01-25T11:44:38.254Z,26.98
2023-01-25T11:47:24.586Z,24.70
2023-01-25T11:50:30.070Z,18.80
2023-01-25T11:53:19.930Z,29.65
2023-01-25T11:56:06.435Z,31.98
2023-01-25T11:58:55.325Z,25.65
2023-01-25T12:01:33.494Z,29.48
2023-01-25T12:04:20.794Z,24.73
2023-01-25T12:07:04.049Z,34.70
2023-01-25T12:09:57.180Z,30.92
2023-01-25T12:12:31.341Z,26.20
2023-01-25T12:15:39.866Z,24.50
2023-01-25T12:18:34.979Z,28.92
2023-01-25T12:21:13.413Z,29.27
2023-01-25T12:24:11.323Z,37.78
2023-01-25T12:26:51.345Z,25.55
2023-01-25T12:30:03.620Z,31.88
2023-01-25T12:32:57.254Z,25.75
2023-01-25T12:35:47.209Z,36.13
2023-01-25T12:38:38.219Z,28.25
2023-01-25T12:41:19.176Z,33.30
2023-01-25T12:47:44.184Z,33.17
2023-01-25T12:50:20.593Z,35.50
2023-01-25T12:52:59.483Z,28.83
2023-01-25T12:55:28.746Z,24.80
2023-01-25T12:58:37.509Z,18.75
2023-01-25T13:01:27.755Z,28.48
2023-01-25T13:04:30.469Z,26.15
2023-01-25T13:07:27.110Z,26.67
2023-01-25T13:10:27.372Z,26.90
2023-01-25T13:13:00.902Z,26.67
2023-01-25T13:15:43.607Z,30.13
2023-01-25T13:18:24.914Z,42.83
2023-01-25T13:20:55.444Z,29.95
2023-01-25T13:23:46.047Z,32.65
2023-01-25T13:26:29.397Z,29.08
2023-01-25T13:29:01.773Z,34.92
2023-01-25T13:34:36.679Z,33.35
2023-01-25T13:37:20.295Z,32.22
2023-01-25T13:40:06.540Z,30.33
2023-01-25T13:42:37.694Z,27.40
2023-01-25T13:45:21.459Z,28.92
2023-01-25T13:48:10.929Z,31.42
2023-01-25T13:51:06.926Z,29.48
2023-01-25T13:53:46.984Z,28.00
2023-01-25T13:56:41.563Z,29.73
2023-01-25T13:59:54.357Z,32.40
2023-01-25T14:02:35.815Z,30.65
2023-01-25T14:05:36.425Z,36.03
2023-01-25T14:08:05.661Z,33.55
2023-01-25T14:10:35.396Z,31.17
2023-01-25T14:13:05.352Z,35.95
2023-01-25T14:15:33.961Z,37.22
2023-01-25T14:18:19.229Z,32.50
2023-01-25T14:20:51.770Z,30.15
2023-01-25T14:23:42.425Z,28.23
2023-01-25T14:26:28.904Z,27.13
2023-01-25T14:29:02.654Z,29.83
2023-01-25T14:31:37.623Z,32.35
2023-01-25T14:34:08.671Z,30.85
2023-01-25T14:36:37.160Z,29.98
2023-01-25T14:39:41.701Z,28.95
2023-01-25T14:42:10.766Z,32.42
2023-01-25T14:44:43.634Z,28.80
2023-01-25T14:47:34.355Z,34.08
2023-01-25T14:50:39.748Z,36.45
2023-01-25T14:53:20.156Z,32.10
2023-01-25T14:55:50.439Z,33.92
2023-01-25T14:58:24.500Z,33.65
2023-01-25T15:01:03.237Z,34.17
2023-01-25T15:03:32.256Z,35.85
2023-01-25T15:06:04.638Z,35.88
2023-01-25T15:08:41.098Z,29.23
2023-01-25T15:11:37.791Z,28.83
2023-01-25T15:14:17.431Z,34.50
2023-01-25T15:16:46.572Z,31.55
2023-01-25T15:19:26.976Z,33.33
2023-01-25T15:22:00.256Z,36.03
2023-01-25T15:24:58.577Z,39.42
2023-01-25T15:27:27.600Z,36.50
2023-01-25T15:29:59.453Z,39.40
2023-01-25T15:32:28.045Z,39.90
2023-01-25T15:34:56.773Z,30.63
2023-01-25T15:37:25.415Z,33.55
2023-01-25T15:39:53.746Z,31.90
2023-01-25T15:42:22.245Z,33.35
2023-01-25T15:44:50.625Z,37.22
2023-01-25T15:47:19.171Z,33.85
2023-01-25T15:49:49.916Z,36.35
2023-01-25T15:52:18.962Z,36.47
2023-01-25T15:54:56.031Z,33.25
2023-01-25T15:57:33.004Z,34.50
2023-01-25T16:00:02.394Z,38.38
2023-01-25T16:05:01.487Z,32.00
2023-01-25T16:07:38.883Z,36.42
2023-01-25T16:10:19.106Z,35.78
2023-01-25T16:12:48.095Z,37.90
2023-01-25T16:15:16.793Z,34.05
2023-01-25T16:17:46.259Z,39.70
2023-01-25T16:20:19.181Z,36.35
2023-01-25T16:22:48.037Z,35.22
2023-01-25T16:25:16.474Z,39.75
2023-01-25T16:27:45.559Z,38.25
2023-01-25T16:30:22.343Z,36.35
2023-01-25T16:32:53.449Z,35.75
2023-01-25T16:35:21.838Z,33.20
2023-01-25T16:37:51.091Z,37.67
2023-01-25T16:40:26.940Z,35.63
2023-01-25T16:42:56.191Z,38.47
2023-01-25T16:45:24.479Z,39.00
2023-01-25T16:47:53.563Z,35.20
2023-01-25T16:50:23.597Z,35.00
2023-01-25T16:52:53.235Z,34.20
2023-01-25T16:55:21.737Z,35.72
2023-01-25T16:57:52.052Z,34.50
2023-01-25T17:00:20.869Z,38.35
2023-01-25T17:02:58.540Z,39.30
2023-01-25T17:05:33.516Z,36.85
2023-01-25T17:08:02.190Z,31.42
2023-01-25T17:10:34.835Z,31.30
2023-01-25T17:13:03.743Z,38.63
2023-01-25T17:15:34.261Z,34.70
2023-01-25T17:18:02.947Z,36.35
2023-01-25T17:20:31.249Z,36.42
2023-01-25T17:22:59.905Z,35.33
2023-01-25T17:25:32.729Z,36.75
2023-01-25T17:28:02.077Z,35.55
2023-01-25T17:30:30.582Z,37.40
2023-01-25T17:32:59.216Z,34.45
2023-01-25T17:35:27.473Z,38.35
2023-01-25T17:37:57.423Z,35.38
2023-01-25T17:40:25.858Z,38.35
2023-01-25T17:42:54.505Z,41.38
2023-01-25T17:45:23.030Z,42.25
2023-01-25T17:47:51.705Z,42.78
2023-01-25T17:50:19.958Z,41.30
2023-01-25T17:52:48.881Z,43.97
2023-01-25T17:55:17.263Z,42.42
2023-01-25T17:57:46.545Z,40.67
2023-01-25T18:00:15.381Z,39.20
2023-01-25T18:02:45.446Z,38.83
2023-01-25T18:05:15.474Z,43.85
2023-01-25T18:07:45.236Z,39.78
2023-01-25T18:10:13.891Z,45.63
2023-01-25T18:12:43.744Z,57.17
2023-01-25T18:15:13.188Z,64.07
2023-01-25T18:17:41.875Z,62.03
2023-01-25T18:20:11.846Z,77.00
2023-01-25T18:22:41.795Z,58.88
2023-01-25T18:25:32.207Z,53.45
2023-01-25T18:28:01.115Z,49.75
2023-01-25T18:30:34.602Z,50.05
2023-01-25T18:33:04.037Z,54.22
2023-01-25T18:35:32.785Z,48.80
2023-01-25T18:38:02.032Z,57.78
2023-01-25T18:40:30.689Z,50.03
2023-01-25T18:42:59.358Z,42.72
2023-01-25T18:45:27.739Z,41.88
2023-01-25T18:47:56.423Z,49.55
2023-01-25T18:50:24.858Z,50.75
2023-01-25T18:52:56.514Z,38.65
2023-01-25T18:55:24.876Z,53.42
2023-01-25T18:57:53.840Z,49.17
2023-01-25T19:00:24.651Z,50.65
2023-01-25T19:02:53.299Z,44.15
2023-01-25T19:05:21.884Z,45.58
2023-01-25T19:07:50.490Z,42.72
2023-01-25T19:10:19.427Z,44.47
2023-01-25T19:12:48.031Z,46.72
2023-01-25T19:16:32.480Z,45.80
2023-01-25T19:19:01.218Z,46.10
2023-01-25T19:21:29.614Z,46.13
2023-01-25T19:23:58.356Z,49.72
2023-01-25T19:26:26.984Z,50.65
2023-01-25T19:29:29.689Z,49.70
2023-01-25T19:34:28.077Z,44.65
2023-01-25T19:36:57.475Z,43.08
2023-01-25T19:39:26.077Z,49.90
2023-01-25T19:41:54.784Z,50.97
2023-01-25T19:45:24.826Z,51.17
2023-01-25T19:47:26.029Z,48.38
2023-01-25T19:50:05.487Z,46.20
2023-01-25T19:52:36.636Z,42.40
2023-01-25T19:55:07.574Z,47.25
2023-01-25T19:57:37.348Z,41.63
2023-01-25T20:00:13.427Z,44.40
2023-01-25T20:02:42.224Z,44.55
2023-01-25T20:05:43.694Z,42.08
2023-01-25T20:08:51.947Z,42.92
2023-01-25T20:11:32.104Z,45.25
2023-01-25T20:14:07.560Z,47.97
2023-01-25T20:16:38.483Z,50.05
2023-01-25T20:19:23.245Z,46.65
2023-01-25T20:22:00.157Z,46.33
2023-01-25T20:24:28.920Z,42.20
2023-01-25T20:27:00.289Z,49.22
2023-01-25T20:29:29.111Z,49.05
2023-01-25T20:32:05.980Z,48.28
2023-01-25T20:34:39.272Z,49.40
2023-01-25T20:37:08.550Z,48.42
2023-01-25T20:40:00.801Z,49.92
2023-01-25T20:42:32.879Z,45.47
2023-01-25T20:45:35.707Z,50.20
2023-01-25T20:48:14.847Z,48.72
2023-01-25T20:51:17.247Z,45.83
2023-01-25T20:53:52.016Z,52.63
2023-01-25T20:57:12.533Z,56.50
2023-01-25T20:59:59.470Z,59.90
2023-01-25T21:02:41.205Z,63.47
2023-01-25T21:05:15.608Z,60.40
2023-01-25T21:07:44.072Z,62.78
2023-01-25T21:10:23.029Z,58.05
2023-01-25T21:12:51.424Z,59.60
2023-01-25T21:15:20.159Z,80.45
2023-01-25T21:17:55.148Z,66.57
2023-01-25T21:20:23.811Z,71.18
2023-01-25T21:22:52.220Z,59.15
2023-01-25T21:26:00.458Z,58.33
2023-01-25T21:28:31.651Z,53.22
2023-01-25T21:31:15.911Z,59.38
2023-01-25T21:34:18.911Z,61.17
2023-01-25T21:36:50.483Z,64.72
2023-01-25T21:39:20.183Z,68.63
2023-01-25T21:43:12.026Z,62.40
2023-01-25T21:45:38.379Z,62.00
2023-01-25T21:48:35.071Z,71.35
2023-01-25T21:54:58.824Z,53.40
2023-01-25T21:58:47.012Z,59.67
2023-01-25T22:05:01.282Z,55.83
2023-01-25T22:07:33.688Z,51.88
2023-01-25T22:10:05.545Z,54.20
2023-01-25T22:12:34.227Z,54.03
2023-01-25T22:15:09.470Z,54.05
2023-01-25T22:17:38.468Z,56.47
2023-01-25T22:20:11.416Z,57.60
2023-01-25T22:22:40.399Z,54.78
2023-01-25T22:25:10.059Z,56.75
2023-01-25T22:27:58.960Z,59.65
2023-01-25T22:30:27.700Z,54.65
2023-01-25T22:32:55.992Z,57.50
2023-01-25T22:35:27.393Z,51.08
2023-01-25T22:38:20.800Z,50.10
2023-01-25T22:40:49.419Z,55.67
2023-01-25T22:43:18.013Z,57.78
2023-01-25T22:46:06.563Z,63.88
2023-01-25T22:48:36.270Z,61.22
2023-01-25T22:51:07.476Z,53.75
2023-01-25T22:53:36.100Z,53.00
2023-01-25T22:56:18.575Z,46.17
2023-01-25T22:58:47.996Z,58.85
2023-01-25T23:01:20.073Z,57.30
2023-01-25T23:03:49.574Z,52.58
2023-01-25T23:06:20.567Z,52.08
2023-01-25T23:08:49.806Z,50.95
2023-01-25T23:11:21.799Z,49.35
2023-01-25T23:14:08.869Z,47.00
2023-01-25T23:16:37.683Z,51.08
2023-01-25T23:19:06.238Z,49.22
2023-01-25T23:21:35.877Z,48.33
2023-01-25T23:24:04.646Z,51.75
2023-01-25T23:26:39.169Z,59.75
2023-01-25T23:29:11.477Z,63.47
2023-01-25T23:31:40.076Z,55.75
2023-01-25T23:34:08.386Z,54.72
2023-01-25T23:36:38.954Z,51.03
2023-01-25T23:39:07.541Z,55.00
2023-01-25T23:41:36.043Z,55.60
2023-01-25T23:44:04.361Z,60.67
2023-01-25T23:46:32.934Z,61.67
2023-01-25T23:49:01.223Z,61.97
2023-01-25T23:51:29.774Z,60.25
2023-01-25T23:53:58.493Z,56.15
2023-01-25T23:56:27.066Z,57.30
2023-01-25T23:58:55.316Z,52.05
